Latest Weather Observations for Scotts Peak

IDT60801

Issued at 6:31 pm EDT Tuesday 17 October 2017 (issued every 30 minutes, with the page automatically refreshed every 10 minutes)

About weather observations | Map of weather stations | Latest weather observations for TAS | Other Formats
Station Details ID: 097083 Name: SCOTTS PEAK DAM Lat: -43.04 Lon: 146.27 Height: 408.0 m
Data from the previous 72 hours. | See also: Recent months at Scotts Peak
Date/Time
EDT
Temp
°C
App
Temp
°C
Dew
Point
°C
Rel
Hum
%
Delta-T
°C
Wind Press
QNH
hPa
Press
MSL
hPa
Rain since
9am
mm
Dir  Spd
km/h
Gust
km/h
Spd
kts
Gust
kts
17/06:30pm 24.1 21.3 10.0 41 7.9 NNW 15 20 8 11 - - 0.0
17/06:00pm 25.3 22.2 10.4 39 8.4 NW 17 24 9 13 - - 0.0
17/05:30pm 26.3 22.8 10.9 38 8.8 NNW 20 24 11 13 - - 0.0
17/05:00pm 24.4 19.1 11.4 44 7.5 NNW 30 39 16 21 - - 0.0
17/04:30pm 24.9 19.5 9.6 38 8.5 NNW 28 35 15 19 - - 0.0
17/04:00pm 27.6 23.8 11.2 36 9.5 NNW 22 28 12 15 - - 0.0
17/03:30pm 27.7 23.4 10.9 35 9.7 NNW 24 30 13 16 - - 0.0
17/03:00pm 27.1 22.5 11.2 37 9.2 N 26 32 14 17 - - 0.0
17/02:30pm 26.0 20.9 10.6 38 8.8 N 28 32 15 17 - - 0.0
17/02:00pm 26.0 21.1 9.8 36 9.1 NNW 26 32 14 17 - - 0.0
17/01:30pm 25.3 19.8 10.7 40 8.3 NNW 30 35 16 19 - - 0.0
17/01:00pm 25.7 20.3 9.5 36 9.1 NNW 28 35 15 19 - - 0.0
17/12:30pm 23.7 18.8 8.6 38 8.2 N 24 32 13 17 - - 0.0
17/12:00pm 25.9 22.5 10.5 38 8.8 N 19 24 10 13 - - 0.0
17/11:30am 23.8 21.0 11.5 46 7.0 NNW 17 20 9 11 - - 0.0
17/11:00am 21.9 20.1 12.2 54 5.6 NNW 13 17 7 9 - - 0.0
17/10:30am 18.6 17.3 11.2 62 4.1 N 9 13 5 7 - - 0.0
17/10:00am 17.8 17.6 11.8 68 3.4 SE 4 9 2 5 - - 0.0
17/09:30am 14.5 14.0 10.9 79 1.9 N 4 9 2 5 - - 0.0
17/09:00am 13.1 13.0 10.8 86 1.2 NNE 2 7 1 4 - - 0.0
17/08:30am 10.7 10.7 9.9 95 0.4 CALM 0 6 0 3 - - 0.0
17/08:00am 10.0 8.9 9.9 99 0.1 NNW 6 9 3 5 - - 0.0
17/07:30am 9.3 7.8 9.2 99 0.1 NNW 7 9 4 5 - - 0.0
17/07:00am 9.0 7.1 8.9 99 0.1 N 9 11 5 6 - - 0.0
17/06:30am 8.5 6.8 8.4 99 0.0 NW 7 9 4 5 - - 0.0
17/06:00am 8.5 6.8 8.2 98 0.1 NNW 7 9 4 5 - - 0.0
17/05:30am 8.6 6.5 8.2 97 0.2 NNW 9 9 5 5 - - 0.0
17/05:00am 9.3 9.0 8.7 96 0.3 CALM 0 0 0 0 - - 0.0
17/04:30am 9.5 9.2 8.7 95 0.4 CALM 0 0 0 0 - - 0.0
17/04:00am 10.1 9.9 9.0 93 0.6 CALM 0 0 0 0 - - 0.0
17/03:30am 10.3 10.0 8.6 89 0.9 CALM 0 0 0 0 - - 0.0
17/03:00am 10.4 8.8 8.7 89 0.9 SE 7 9 4 5 - - 0.0
17/02:30am 10.8 9.1 8.2 84 1.3 SSE 7 9 4 5 - - 0.0
17/02:00am 10.9 8.6 7.6 80 1.6 SSE 9 13 5 7 - - 0.0
17/01:30am 11.8 9.9 6.7 71 2.5 SSE 6 9 3 5 - - 0.0
17/01:00am 12.0 9.5 6.5 69 2.7 SSE 9 11 5 6 - - 0.0
17/12:30am 12.2 9.5 7.3 72 2.4 SSE 11 13 6 7 - - 0.0
17/12:00am 12.4 10.2 7.9 74 2.3 SSE 9 11 5 6 - - 0.0
 
Date/Time
EDT
Temp
°C
App
Temp
°C
Dew
Point
°C
Rel
Hum
%
Delta-T
°C
Wind Press
QNH
hPa
Press
MSL
hPa
Rain since
9am
mm
Dir  Spd
km/h
Gust
km/h
Spd
kts
Gust
kts
16/11:30pm 12.7 10.2 8.4 75 2.2 SE 11 15 6 8 - - 0.0
16/11:00pm 13.1 11.3 8.0 71 2.6 SE 7 11 4 6 - - 0.0
16/10:30pm 13.6 12.2 8.7 72 2.5 SE 6 7 3 4 - - 0.0
16/10:00pm 13.1 11.4 9.7 80 1.8 ESE 9 11 5 6 - - 0.0
16/09:30pm 14.3 12.4 7.6 64 3.4 SW 7 9 4 5 - - 0.0
16/09:00pm 14.5 11.6 8.0 65 3.3 W 13 17 7 9 - - 0.0
16/08:30pm 14.9 11.3 8.4 65 3.3 WSW 17 24 9 13 - - 0.0
16/08:00pm 15.6 13.5 8.1 61 3.9 SW 9 11 5 6 - - 0.0
16/07:30pm 16.3 12.6 7.8 57 4.4 WNW 17 22 9 12 - - 0.0
16/07:00pm 17.0 13.2 8.9 59 4.3 W 19 24 10 13 - - 0.0
16/06:30pm 18.0 14.0 10.4 61 4.1 WSW 22 28 12 15 - - 0.0
16/06:00pm 19.1 14.8 10.9 59 4.5 WSW 24 30 13 16 - - 0.0
16/05:30pm 21.6 18.3 11.0 51 6.0 SW 19 22 10 12 - - 0.0
16/05:00pm 24.7 22.4 9.0 37 8.7 NW 11 13 6 7 - - 0.0
16/04:30pm 26.0 22.7 9.4 35 9.3 NNW 17 20 9 11 - - 0.0
16/04:00pm 25.9 21.9 8.4 33 9.6 NNW 19 24 10 13 - - 0.0
16/03:30pm 26.0 21.5 8.5 33 9.6 N 22 30 12 16 - - 0.0
16/03:00pm 26.0 21.0 8.0 32 9.8 NNW 24 28 13 15 - - 0.0
16/02:30pm 26.3 22.6 9.6 35 9.4 N 19 26 10 14 - - 0.0
16/02:00pm 25.9 22.5 9.3 35 9.3 N 17 22 9 12 - - 0.0
16/01:30pm 25.2 21.4 9.1 36 8.9 N 19 26 10 14 - - 0.0
16/01:00pm 23.9 20.4 10.2 42 7.7 N 19 22 10 12 - - 0.0
16/12:30pm 23.2 20.2 10.6 45 7.1 NNW 17 20 9 11 - - 0.0
16/12:00pm 22.4 19.1 10.9 48 6.5 NNW 19 22 10 12 - - 0.0
16/11:30am 20.0 18.5 12.0 60 4.5 NNW 11 15 6 8 - - 0.0
16/11:00am 16.7 15.0 9.9 64 3.6 NW 9 11 5 6 - - 0.0
16/10:30am 15.5 13.4 8.3 62 3.7 NNW 9 13 5 7 - - 0.0
16/10:00am 14.2 12.8 10.8 80 1.8 NNW 9 11 5 6 - - 0.0
16/09:30am 12.0 10.7 11.2 95 0.4 NNW 9 11 5 6 - - 0.0
16/09:00am 9.0 7.4 8.1 94 0.4 NNW 6 9 3 5 - - 0.0
16/08:30am 9.2 7.6 8.9 98 0.2 NNW 7 9 4 5 - - 0.0
16/08:00am 7.2 5.4 7.1 99 0.0 NNW 6 7 3 4 - - 0.0
16/07:30am 6.8 4.9 6.7 99 0.0 N 6 7 3 4 - - 0.0
16/07:00am 6.9 6.2 6.9 100 0.0 CALM 0 0 0 0 - - 0.0
16/06:30am 6.8 6.0 6.7 99 0.0 CALM 0 6 0 3 - - 0.0
16/06:00am 5.6 2.9 5.5 99 0.0 NNW 9 11 5 6 - - 0.0
16/05:30am 6.0 3.9 5.7 98 0.1 NNW 6 7 3 4 - - 0.0
16/05:00am 6.0 3.8 5.4 96 0.3 NNW 6 9 3 5 - - 0.0
16/04:30am 6.7 5.8 6.1 96 0.3 CALM 0 0 0 0 - - 0.0
16/04:00am 8.1 7.6 8.0 99 0.0 CALM 0 0 0 0 - - 0.0
16/03:30am 8.0 7.1 7.9 99 0.0 NNW 2 6 1 3 - - 0.0
16/03:00am 7.1 4.9 6.2 94 0.4 NNW 7 9 4 5 - - 0.0
16/02:30am 8.3 7.8 7.7 96 0.3 CALM 0 0 0 0 - - 0.0
16/02:00am 8.5 8.0 7.7 95 0.4 CALM 0 0 0 0 - - 0.0
16/01:30am 8.9 7.7 8.1 95 0.4 N 4 7 2 4 - - 0.0
16/01:00am 8.6 7.0 8.0 96 0.3 N 6 7 3 4 - - 0.0
16/12:30am 8.7 7.0 7.6 93 0.5 N 6 9 3 5 - - 0.0
16/12:00am 8.9 7.2 8.5 97 0.2 N 7 11 4 6 - - 0.0
 
Date/Time
EDT
Temp
°C
App
Temp
°C
Dew
Point
°C
Rel
Hum
%
Delta-T
°C
Wind Press
QNH
hPa
Press
MSL
hPa
Rain since
9am
mm
Dir  Spd
km/h
Gust
km/h
Spd
kts
Gust
kts
15/11:30pm 8.2 5.9 7.4 95 0.4 NW 9 11 5 6 - - 0.0
15/11:00pm 8.6 6.8 7.8 95 0.4 NNW 7 9 4 5 - - 0.0
15/10:30pm 8.8 6.5 7.6 92 0.6 NNW 9 11 5 6 - - 0.0
15/10:00pm 9.6 7.9 8.2 91 0.7 NNW 7 9 4 5 - - 0.0
15/09:30pm 9.5 5.9 8.4 93 0.5 N 17 19 9 10 - - 0.0
15/09:00pm 9.7 7.9 8.1 90 0.8 N 7 9 4 5 - - 0.0
15/08:30pm 10.4 8.3 8.3 87 1.0 N 9 11 5 6 - - 0.0
15/08:00pm 11.4 9.8 7.9 79 1.7 NW 6 7 3 4 - - 0.0
15/07:30pm 12.5 10.4 8.4 76 2.1 W 9 13 5 7 - - 0.0
15/07:00pm 14.0 11.3 8.8 71 2.7 W 13 17 7 9 - - 0.0
15/06:30pm 15.0 11.6 9.1 68 3.1 SW 17 22 9 12 - - 0.0
15/06:00pm 16.7 14.0 8.9 60 4.1 NW 13 20 7 11 - - 0.0
15/05:30pm 17.5 12.4 7.8 53 5.0 WNW 24 30 13 16 - - 0.0
15/05:00pm 18.0 11.8 8.0 52 5.2 NW 30 37 16 20 - - 0.0
15/04:30pm 18.7 12.2 8.1 50 5.6 NW 32 39 17 21 - - 0.0
15/04:00pm 19.2 12.7 8.8 51 5.5 NW 33 39 18 21 - - 0.0
15/03:30pm 19.5 13.2 9.7 53 5.3 NW 33 43 18 23 - - 0.0
15/03:00pm 19.1 12.2 8.7 51 5.5 NW 35 44 19 24 - - 0.0
15/02:30pm 18.7 11.5 9.2 54 5.1 NW 37 43 20 23 - - 0.0
15/02:00pm 18.9 11.8 9.7 55 5.0 NW 37 44 20 24 - - 0.0
15/01:30pm 18.9 12.7 10.2 57 4.8 NW 33 41 18 22 - - 0.0
15/01:00pm 19.2 13.8 11.0 59 4.6 NW 30 37 16 20 - - 0.0
15/12:30pm 17.8 11.6 10.2 61 4.1 NW 33 44 18 24 - - 0.0
15/12:00pm 16.7 11.1 10.3 66 3.5 NNW 30 41 16 22 - - 0.0
15/11:30am 15.5 9.3 10.1 70 2.9 NNW 33 41 18 22 - - 0.0
15/11:00am 14.5 8.5 10.1 75 2.3 NNW 32 39 17 21 - - 0.0
15/10:30am 11.4 5.1 9.1 86 1.2 NNW 32 39 17 21 - - 0.0
15/10:00am 10.7 4.4 8.8 88 1.0 NNW 32 39 17 21 - - 0.0
15/09:30am 10.4 4.8 8.8 90 0.8 NW 28 35 15 19 - - 0.0
15/09:00am 9.8 4.2 8.7 93 0.6 NW 28 37 15 20 - - 0.2
15/08:30am 8.9 1.8 8.1 95 0.4 NW 35 43 19 23 - - 0.2
15/08:00am 8.9 2.9 8.5 97 0.2 NW 30 35 16 19 - - 0.2
15/07:30am 8.3 1.8 8.2 99 0.0 NW 32 39 17 21 - - 0.2
15/07:00am 7.8 1.2 7.7 99 0.0 NNW 32 37 17 20 - - 0.2
15/06:30am 7.3 1.0 7.2 99 0.0 NNW 30 39 16 21 - - 0.2
15/06:00am 7.2 0.4 7.1 99 0.0 NNW 32 37 17 20 - - 0.2
15/05:30am 7.2 1.2 7.1 99 0.0 NNW 28 33 15 18 - - 0.2
15/05:00am 7.4 0.7 7.3 99 0.0 NNW 32 37 17 20 - - 0.2
15/04:30am 7.5 0.6 7.4 99 0.0 NNW 33 39 18 21 - - 0.2
15/04:00am 7.6 0.0 7.5 99 0.0 NNW 37 46 20 25 - - 0.2
15/03:30am 7.8 -0.1 7.7 99 0.0 NNW 39 44 21 24 - - 0.2
15/03:00am 7.9 0.4 7.8 99 0.0 NNW 37 43 20 23 - - 0.2
15/02:30am 7.8 0.2 7.7 99 0.0 NNW 37 43 20 23 - - 0.2
15/02:00am 7.8 0.2 7.7 99 0.0 NNW 37 44 20 24 - - 0.2
15/01:30am 7.7 0.1 7.6 99 0.0 NNW 37 44 20 24 - - 0.2
15/01:00am 7.7 -1.0 7.6 99 0.0 NNW 43 50 23 27 - - 0.2
15/12:30am 7.9 0.3 7.6 98 0.1 NNW 37 44 20 24 - - 0.2
15/12:00am 7.9 0.7 7.6 98 0.1 NNW 35 48 19 26 - - 0.2
 
Date/Time
EDT
Temp
°C
App
Temp
°C
Dew
Point
°C
Rel
Hum
%
Delta-T
°C
Wind Press
QNH
hPa
Press
MSL
hPa
Rain since
9am
mm
Dir  Spd
km/h
Gust
km/h
Spd
kts
Gust
kts
14/11:30pm 7.7 -0.3 7.4 98 0.1 NNW 39 46 21 25 - - 0.2
14/11:00pm 7.7 -0.4 7.1 96 0.3 NNW 39 46 21 25 - - 0.2
14/10:30pm 7.9 -0.6 6.8 93 0.5 NNW 41 48 22 26 - - 0.2
14/10:00pm 8.1 -0.5 6.6 90 0.7 NNW 41 48 22 26 - - 0.2
14/09:30pm 8.3 1.2 6.3 87 0.9 NNW 33 43 18 23 - - 0.2
14/09:00pm 8.2 2.0 6.0 86 1.0 NW 28 32 15 17 - - 0.2
14/08:30pm 8.4 2.5 5.7 83 1.3 NW 26 33 14 18 - - 0.2
14/08:00pm 8.7 1.0 5.3 79 1.6 NW 35 43 19 23 - - 0.2
14/07:30pm 9.4 1.3 5.2 75 1.9 NW 37 46 20 25 - - 0.2
14/07:00pm 10.5 2.7 5.1 69 2.5 NW 35 46 19 25 - - 0.2

Other Formats:

Comma delimited format used in spreadsheet applications
http://www.bom.gov.au/fwo/IDT60801/IDT60801.95958.axf

JavaScript Object Notation format (JSON) in row-major order
http://www.bom.gov.au/fwo/IDT60801/IDT60801.95958.json